sensor_id;sensor_type;location;lat;lon;timestamp;pressure;altitude;pressure_sealevel;temperature;humidity
40730;BME280;26418;50.070;8.436;2022-09-02T00:01:21;100145.28;;;18.15;47.21
40730;BME280;26418;50.070;8.436;2022-09-02T00:03:48;100142.34;;;18.08;47.28
40730;BME280;26418;50.070;8.436;2022-09-02T00:06:15;100141.44;;;18.04;47.54
40730;BME280;26418;50.070;8.436;2022-09-02T00:08:41;100132.34;;;18.00;47.45
40730;BME280;26418;50.070;8.436;2022-09-02T00:11:12;100138.13;;;17.98;47.65
40730;BME280;26418;50.070;8.436;2022-09-02T00:13:39;100135.75;;;17.97;47.70
40730;BME280;26418;50.070;8.436;2022-09-02T00:16:05;100138.81;;;17.95;47.82
40730;BME280;26418;50.070;8.436;2022-09-02T00:18:30;100135.75;;;17.97;47.65
40730;BME280;26418;50.070;8.436;2022-09-02T00:20:56;100119.44;;;17.88;47.78
40730;BME280;26418;50.070;8.436;2022-09-02T00:23:22;100129.56;;;17.87;48.01
40730;BME280;26418;50.070;8.436;2022-09-02T00:25:47;100126.72;;;17.84;48.05
40730;BME280;26418;50.070;8.436;2022-09-02T00:28:14;100127.75;;;17.79;48.09
40730;BME280;26418;50.070;8.436;2022-09-02T00:30:41;100121.41;;;17.75;48.08
40730;BME280;26418;50.070;8.436;2022-09-02T00:33:07;100124.81;;;17.72;48.29
40730;BME280;26418;50.070;8.436;2022-09-02T00:35:33;100128.22;;;17.69;48.38
40730;BME280;26418;50.070;8.436;2022-09-02T00:37:59;100126.31;;;17.69;48.47
40730;BME280;26418;50.070;8.436;2022-09-02T00:40:26;100123.09;;;17.67;48.37
40730;BME280;26418;50.070;8.436;2022-09-02T00:42:52;100128.94;;;17.66;48.41
40730;BME280;26418;50.070;8.436;2022-09-02T00:45:19;100126.09;;;17.62;48.56
40730;BME280;26418;50.070;8.436;2022-09-02T00:47:46;100123.00;;;17.51;48.69
40730;BME280;26418;50.070;8.436;2022-09-02T00:50:13;100122.44;;;17.46;48.90
40730;BME280;26418;50.070;8.436;2022-09-02T00:52:48;100118.31;;;17.39;49.06
40730;BME280;26418;50.070;8.436;2022-09-02T00:55:22;100115.94;;;17.38;49.12
40730;BME280;26418;50.070;8.436;2022-09-02T00:57:51;100125.38;;;17.40;49.12
40730;BME280;26418;50.070;8.436;2022-09-02T01:00:26;100128.13;;;17.40;49.25
40730;BME280;26418;50.070;8.436;2022-09-02T01:02:56;100119.03;;;17.36;49.16
40730;BME280;26418;50.070;8.436;2022-09-02T01:05:24;100113.88;;;17.35;49.46
40730;BME280;26418;50.070;8.436;2022-09-02T01:07:51;100110.91;;;17.27;49.51
40730;BME280;26418;50.070;8.436;2022-09-02T01:10:25;100107.72;;;17.25;49.66
40730;BME280;26418;50.070;8.436;2022-09-02T01:13:01;100115.59;;;17.27;49.62
40730;BME280;26418;50.070;8.436;2022-09-02T01:15:32;100113.19;;;17.25;49.70
40730;BME280;26418;50.070;8.436;2022-09-02T01:17:58;100104.09;;;17.21;49.80
40730;BME280;26418;50.070;8.436;2022-09-02T01:20:25;100106.81;;;17.21;49.86
40730;BME280;26418;50.070;8.436;2022-09-02T01:22:51;100110.69;;;17.20;49.66
40730;BME280;26418;50.070;8.436;2022-09-02T01:25:20;100111.16;;;17.22;49.73
40730;BME280;26418;50.070;8.436;2022-09-02T01:27:47;100113.41;;;17.20;49.75
40730;BME280;26418;50.070;8.436;2022-09-02T01:30:22;100113.41;;;17.20;49.73
40730;BME280;26418;50.070;8.436;2022-09-02T01:32:48;100115.25;;;17.16;49.74
40730;BME280;26418;50.070;8.436;2022-09-02T01:35:14;100112.06;;;17.14;49.85
40730;BME280;26418;50.070;8.436;2022-09-02T01:37:40;100110.56;;;17.17;49.90
40730;BME280;26418;50.070;8.436;2022-09-02T01:40:09;100103.75;;;17.10;49.97
40730;BME280;26418;50.070;8.436;2022-09-02T01:42:36;100112.84;;;17.15;50.09
40730;BME280;26418;50.070;8.436;2022-09-02T01:45:03;100101.31;;;17.09;49.74
40730;BME280;26418;50.070;8.436;2022-09-02T01:47:29;100106.91;;;17.12;49.74
40730;BME280;26418;50.070;8.436;2022-09-02T01:49:55;100105.00;;;17.13;49.70
40730;BME280;26418;50.070;8.436;2022-09-02T01:52:22;100102.50;;;17.08;49.98
40730;BME280;26418;50.070;8.436;2022-09-02T01:54:48;100098.38;;;17.02;50.04
40730;BME280;26418;50.070;8.436;2022-09-02T01:57:14;100097.94;;;17.00;50.23
40730;BME280;26418;50.070;8.436;2022-09-02T01:59:40;100100.97;;;16.98;50.25
40730;BME280;26418;50.070;8.436;2022-09-02T02:02:07;100099.25;;;16.93;50.44
40730;BME280;26418;50.070;8.436;2022-09-02T02:04:33;100099.81;;;16.87;50.44
40730;BME280;26418;50.070;8.436;2022-09-02T02:06:59;100101.50;;;16.79;50.63
40730;BME280;26418;50.070;8.436;2022-09-02T02:09:25;100101.84;;;16.77;50.77
40730;BME280;26418;50.070;8.436;2022-09-02T02:11:51;100100.22;;;16.76;50.85
40730;BME280;26418;50.070;8.436;2022-09-02T02:14:17;100106.72;;;16.72;51.02
40730;BME280;26418;50.070;8.436;2022-09-02T02:16:43;100098.41;;;16.68;51.04
40730;BME280;26418;50.070;8.436;2022-09-02T02:19:09;100102.59;;;16.65;51.03
40730;BME280;26418;50.070;8.436;2022-09-02T02:21:35;100097.13;;;16.65;51.13
40730;BME280;26418;50.070;8.436;2022-09-02T02:24:01;100092.47;;;16.66;51.02
40730;BME280;26418;50.070;8.436;2022-09-02T02:26:27;100102.25;;;16.67;51.14
40730;BME280;26418;50.070;8.436;2022-09-02T02:28:53;100091.69;;;16.65;51.21
40730;BME280;26418;50.070;8.436;2022-09-02T02:31:19;100101.59;;;16.70;51.13
40730;BME280;26418;50.070;8.436;2022-09-02T02:33:45;100098.03;;;16.70;51.08
40730;BME280;26418;50.070;8.436;2022-09-02T02:36:12;100098.28;;;16.64;51.11
40730;BME280;26418;50.070;8.436;2022-09-02T02:38:39;100103.59;;;16.61;51.32
40730;BME280;26418;50.070;8.436;2022-09-02T02:41:06;100097.56;;;16.55;51.34
40730;BME280;26418;50.070;8.436;2022-09-02T02:43:35;100100.94;;;16.52;51.57
40730;BME280;26418;50.070;8.436;2022-09-02T02:46:01;100098.22;;;16.52;51.65
40730;BME280;26418;50.070;8.436;2022-09-02T02:48:26;100101.63;;;16.49;51.80
40730;BME280;26418;50.070;8.436;2022-09-02T02:50:52;100100.03;;;16.48;51.71
40730;BME280;26418;50.070;8.436;2022-09-02T02:53:18;100102.78;;;16.48;51.94
40730;BME280;26418;50.070;8.436;2022-09-02T02:55:44;100105.75;;;16.55;51.71
40730;BME280;26418;50.070;8.436;2022-09-02T02:58:10;100100.88;;;16.61;51.49
40730;BME280;26418;50.070;8.436;2022-09-02T03:00:35;100103.25;;;16.62;51.71
40730;BME280;26418;50.070;8.436;2022-09-02T03:03:07;100101.13;;;16.68;51.61
40730;BME280;26418;50.070;8.436;2022-09-02T03:05:34;100098.84;;;16.70;51.22
40730;BME280;26418;50.070;8.436;2022-09-02T03:08:01;100103.38;;;16.66;51.57
40730;BME280;26418;50.070;8.436;2022-09-02T03:10:28;100098.81;;;16.58;51.66
40730;BME280;26418;50.070;8.436;2022-09-02T03:12:58;100096.75;;;16.55;51.90
40730;BME280;26418;50.070;8.436;2022-09-02T03:15:24;100097.44;;;16.52;52.10
40730;BME280;26418;50.070;8.436;2022-09-02T03:17:49;100104.69;;;16.47;51.97
40730;BME280;26418;50.070;8.436;2022-09-02T03:20:16;100095.25;;;16.45;52.15
40730;BME280;26418;50.070;8.436;2022-09-02T03:22:43;100097.97;;;16.45;52.20
40730;BME280;26418;50.070;8.436;2022-09-02T03:25:11;100091.25;;;16.42;52.23
40730;BME280;26418;50.070;8.436;2022-09-02T03:27:39;100093.88;;;16.39;52.32
40730;BME280;26418;50.070;8.436;2022-09-02T03:30:08;100094.78;;;16.43;52.15
40730;BME280;26418;50.070;8.436;2022-09-02T03:32:35;100096.03;;;16.45;52.23
40730;BME280;26418;50.070;8.436;2022-09-02T03:35:02;100092.63;;;16.48;52.25
40730;BME280;26418;50.070;8.436;2022-09-02T03:37:27;100094.81;;;16.55;51.91
40730;BME280;26418;50.070;8.436;2022-09-02T03:39:53;100085.69;;;16.51;52.15
40730;BME280;26418;50.070;8.436;2022-09-02T03:42:18;100093.88;;;16.51;52.19
40730;BME280;26418;50.070;8.436;2022-09-02T03:44:44;100084.91;;;16.50;52.10
40730;BME280;26418;50.070;8.436;2022-09-02T03:47:09;100077.84;;;16.49;52.24
40730;BME280;26418;50.070;8.436;2022-09-02T03:49:35;100081.84;;;16.52;52.24
40730;BME280;26418;50.070;8.436;2022-09-02T03:52:01;100079.81;;;16.49;52.20
40730;BME280;26418;50.070;8.436;2022-09-02T03:54:26;100071.59;;;16.49;52.41
40730;BME280;26418;50.070;8.436;2022-09-02T03:56:52;100078.56;;;16.59;52.16
40730;BME280;26418;50.070;8.436;2022-09-02T03:59:18;100084.38;;;16.57;52.11
40730;BME280;26418;50.070;8.436;2022-09-02T04:01:44;100075.38;;;16.57;52.00
40730;BME280;26418;50.070;8.436;2022-09-02T04:04:10;100084.69;;;16.56;52.13
40730;BME280;26418;50.070;8.436;2022-09-02T04:06:36;100077.97;;;16.53;52.21
40730;BME280;26418;50.070;8.436;2022-09-02T04:09:03;100075.13;;;16.49;52.41
40730;BME280;26418;50.070;8.436;2022-09-02T04:11:28;100079.34;;;16.47;52.34
40730;BME280;26418;50.070;8.436;2022-09-02T04:13:54;100080.25;;;16.51;52.29
40730;BME280;26418;50.070;8.436;2022-09-02T04:23:03;100084.91;;;16.50;52.48
40730;BME280;26418;50.070;8.436;2022-09-02T04:25:29;100077.84;;;16.49;52.47
40730;BME280;26418;50.070;8.436;2022-09-02T04:27:56;100080.13;;;16.47;52.40
40730;BME280;26418;50.070;8.436;2022-09-02T04:30:21;100078.06;;;16.44;52.30
40730;BME280;26418;50.070;8.436;2022-09-02T04:32:48;100073.88;;;16.47;52.40
40730;BME280;26418;50.070;8.436;2022-09-02T04:35:14;100078.50;;;16.46;52.44
40730;BME280;26418;50.070;8.436;2022-09-02T04:37:39;100072.94;;;16.43;52.59
40730;BME280;26418;50.070;8.436;2022-09-02T04:40:05;100084.66;;;16.43;52.65
40730;BME280;26418;50.070;8.436;2022-09-02T04:42:31;100081.59;;;16.45;52.51
40730;BME280;26418;50.070;8.436;2022-09-02T04:44:56;100072.81;;;16.39;52.58
40730;BME280;26418;50.070;8.436;2022-09-02T04:47:22;100076.00;;;16.41;52.71
40730;BME280;26418;50.070;8.436;2022-09-02T04:49:50;100077.78;;;16.37;52.87
40730;BME280;26418;50.070;8.436;2022-09-02T04:52:16;100083.59;;;16.35;52.83
40730;BME280;26418;50.070;8.436;2022-09-02T04:54:41;100085.19;;;16.37;52.88
40730;BME280;26418;50.070;8.436;2022-09-02T04:57:07;100083.13;;;16.33;52.99
40730;BME280;26418;50.070;8.436;2022-09-02T04:59:32;100082.81;;;16.35;53.01
40730;BME280;26418;50.070;8.436;2022-09-02T05:02:01;100084.41;;;16.36;52.82
40730;BME280;26418;50.070;8.436;2022-09-02T05:04:27;100086.00;;;16.37;52.89
40730;BME280;26418;50.070;8.436;2022-09-02T05:06:52;100081.81;;;16.40;52.96
40730;BME280;26418;50.070;8.436;2022-09-02T05:09:19;100083.84;;;16.43;52.74
40730;BME280;26418;50.070;8.436;2022-09-02T05:11:45;100081.00;;;16.39;52.84
40730;BME280;26418;50.070;8.436;2022-09-02T05:14:12;100078.75;;;16.41;52.86
40730;BME280;26418;50.070;8.436;2022-09-02T05:16:40;100089.31;;;16.43;52.83
40730;BME280;26418;50.070;8.436;2022-09-02T05:19:07;100084.91;;;16.50;52.78
40730;BME280;26418;50.070;8.436;2022-09-02T05:21:42;100081.97;;;16.56;52.34
40730;BME280;26418;50.070;8.436;2022-09-02T05:24:08;100089.50;;;16.59;52.31
40730;BME280;26418;50.070;8.436;2022-09-02T05:26:34;100088.81;;;16.62;52.10
40730;BME280;26418;50.070;8.436;2022-09-02T05:29:01;100092.00;;;16.64;51.87
40730;BME280;26418;50.070;8.436;2022-09-02T05:31:27;100091.00;;;16.69;51.50
40730;BME280;26418;50.070;8.436;2022-09-02T05:33:53;100094.19;;;16.71;51.39
40730;BME280;26418;50.070;8.436;2022-09-02T05:36:20;100086.47;;;16.73;51.49
40730;BME280;26418;50.070;8.436;2022-09-02T05:38:46;100092.81;;;16.77;51.36
40730;BME280;26418;50.070;8.436;2022-09-02T05:41:15;100091.34;;;16.79;51.12
40730;BME280;26418;50.070;8.436;2022-09-02T05:43:42;100086.94;;;16.87;51.16
40730;BME280;26418;50.070;8.436;2022-09-02T05:46:11;100086.72;;;16.92;51.05
40730;BME280;26418;50.070;8.436;2022-09-02T05:48:37;100090.06;;;16.98;50.93
40730;BME280;26418;50.070;8.436;2022-09-02T05:51:22;100081.75;;;17.07;50.65
40730;BME280;26418;50.070;8.436;2022-09-02T05:53:51;100093.38;;;17.16;50.55
40730;BME280;26418;50.070;8.436;2022-09-02T05:56:17;100089.97;;;17.19;50.38
40730;BME280;26418;50.070;8.436;2022-09-02T05:58:43;100096.47;;;17.27;50.18
40730;BME280;26418;50.070;8.436;2022-09-02T06:01:09;100094.19;;;17.29;49.60
40730;BME280;26418;50.070;8.436;2022-09-02T06:03:35;100082.22;;;17.34;49.79
40730;BME280;26418;50.070;8.436;2022-09-02T06:06:01;100085.50;;;17.39;49.55
40730;BME280;26418;50.070;8.436;2022-09-02T06:08:27;100089.50;;;17.42;49.56
40730;BME280;26418;50.070;8.436;2022-09-02T06:10:53;100079.25;;;17.39;49.84
40730;BME280;26418;50.070;8.436;2022-09-02T06:13:19;100084.28;;;17.49;49.81
40730;BME280;26418;50.070;8.436;2022-09-02T06:15:48;100093.84;;;17.55;49.49
40730;BME280;26418;50.070;8.436;2022-09-02T06:18:15;100085.72;;;17.59;49.40
40730;BME280;26418;50.070;8.436;2022-09-02T06:20:45;100089.25;;;17.59;49.33
40730;BME280;26418;50.070;8.436;2022-09-02T06:23:11;100093.69;;;17.64;49.29
40730;BME280;26418;50.070;8.436;2022-09-02T06:25:39;100100.75;;;17.65;49.14
40730;BME280;26418;50.070;8.436;2022-09-02T06:28:05;100098.38;;;17.64;49.20
40730;BME280;26418;50.070;8.436;2022-09-02T06:30:32;100086.63;;;17.63;49.15
40730;BME280;26418;50.070;8.436;2022-09-02T06:32:58;100098.94;;;17.69;49.09
40730;BME280;26418;50.070;8.436;2022-09-02T06:35:23;100090.38;;;17.71;49.21
40730;BME280;26418;50.070;8.436;2022-09-02T06:37:50;100095.28;;;17.78;49.21
40730;BME280;26418;50.070;8.436;2022-09-02T06:40:15;100092.88;;;17.88;49.13
40730;BME280;26418;50.070;8.436;2022-09-02T06:42:43;100096.28;;;17.98;48.58
40730;BME280;26418;50.070;8.436;2022-09-02T06:45:08;100094.53;;;18.05;48.46
40730;BME280;26418;50.070;8.436;2022-09-02T06:47:34;100096.34;;;18.14;48.37
40730;BME280;26418;50.070;8.436;2022-09-02T06:49:59;100089.69;;;18.27;48.27
40730;BME280;26418;50.070;8.436;2022-09-02T06:52:25;100090.09;;;18.42;48.00
40730;BME280;26418;50.070;8.436;2022-09-02T06:54:51;100092.06;;;18.57;47.92
40730;BME280;26418;50.070;8.436;2022-09-02T06:57:19;100083.78;;;18.69;47.41
40730;BME280;26418;50.070;8.436;2022-09-02T06:59:44;100087.31;;;18.70;46.97
40730;BME280;26418;50.070;8.436;2022-09-02T07:02:11;100083.16;;;18.76;47.76
40730;BME280;26418;50.070;8.436;2022-09-02T07:04:36;100077.88;;;18.83;47.46
40730;BME280;26418;50.070;8.436;2022-09-02T07:07:20;100075.78;;;19.09;47.36
40730;BME280;26418;50.070;8.436;2022-09-02T07:09:45;100078.00;;;19.19;46.06
40730;BME280;26418;50.070;8.436;2022-09-02T07:12:11;100077.31;;;19.22;46.64
40730;BME280;26418;50.070;8.436;2022-09-02T07:14:39;100076.66;;;19.29;47.02
40730;BME280;26418;50.070;8.436;2022-09-02T07:17:05;100074.53;;;19.38;46.19
40730;BME280;26418;50.070;8.436;2022-09-02T07:19:31;100075.59;;;19.33;45.57
40730;BME280;26418;50.070;8.436;2022-09-02T07:21:57;100071.06;;;19.41;46.25
40730;BME280;26418;50.070;8.436;2022-09-02T07:24:22;100081.75;;;19.46;45.63
40730;BME280;26418;50.070;8.436;2022-09-02T07:26:48;100079.91;;;19.51;46.13
40730;BME280;26418;50.070;8.436;2022-09-02T07:29:15;100070.16;;;19.53;45.43
40730;BME280;26418;50.070;8.436;2022-09-02T07:31:43;100077.94;;;19.51;45.35
40730;BME280;26418;50.070;8.436;2022-09-02T07:34:09;100077.66;;;19.56;45.64
40730;BME280;26418;50.070;8.436;2022-09-02T07:36:37;100079.53;;;19.68;45.59
40730;BME280;26418;50.070;8.436;2022-09-02T07:39:04;100080.00;;;19.74;45.26
40730;BME280;26418;50.070;8.436;2022-09-02T07:41:30;100084.34;;;19.75;45.04
40730;BME280;26418;50.070;8.436;2022-09-02T07:43:56;100081.06;;;19.85;45.30
40730;BME280;26418;50.070;8.436;2022-09-02T07:46:21;100083.25;;;19.95;45.20
40730;BME280;26418;50.070;8.436;2022-09-02T07:48:47;100083.41;;;20.03;44.68
40730;BME280;26418;50.070;8.436;2022-09-02T07:51:17;100068.16;;;20.05;44.79
40730;BME280;26418;50.070;8.436;2022-09-02T07:53:43;100073.34;;;20.10;44.27
40730;BME280;26418;50.070;8.436;2022-09-02T07:56:10;100072.78;;;20.21;44.77
40730;BME280;26418;50.070;8.436;2022-09-02T07:58:38;100066.25;;;20.29;44.50
40730;BME280;26418;50.070;8.436;2022-09-02T08:01:04;100060.19;;;20.39;44.11
40730;BME280;26418;50.070;8.436;2022-09-02T08:03:30;100053.34;;;20.53;44.07
40730;BME280;26418;50.070;8.436;2022-09-02T08:05:55;100055.22;;;20.68;43.87
40730;BME280;26418;50.070;8.436;2022-09-02T08:08:21;100055.00;;;20.77;43.66
40730;BME280;26418;50.070;8.436;2022-09-02T08:10:50;100058.28;;;20.86;43.26
40730;BME280;26418;50.070;8.436;2022-09-02T08:13:17;100052.41;;;20.88;43.03
40730;BME280;26418;50.070;8.436;2022-09-02T08:15:44;100056.38;;;20.91;43.06
40730;BME280;26418;50.070;8.436;2022-09-02T08:18:10;100051.75;;;20.95;43.12
40730;BME280;26418;50.070;8.436;2022-09-02T08:20:36;100044.00;;;21.00;43.00
40730;BME280;26418;50.070;8.436;2022-09-02T08:23:05;100049.97;;;21.06;43.01
40730;BME280;26418;50.070;8.436;2022-09-02T08:25:33;100057.03;;;21.07;42.48
40730;BME280;26418;50.070;8.436;2022-09-02T08:27:59;100050.66;;;20.99;42.78
40730;BME280;26418;50.070;8.436;2022-09-02T08:30:25;100057.84;;;21.08;42.69
40730;BME280;26418;50.070;8.436;2022-09-02T08:32:50;100054.38;;;21.11;42.61
40730;BME280;26418;50.070;8.436;2022-09-02T08:35:16;100049.72;;;21.15;42.25
40730;BME280;26418;50.070;8.436;2022-09-02T08:37:42;100052.50;;;21.18;42.70
40730;BME280;26418;50.070;8.436;2022-09-02T08:40:12;100047.00;;;21.18;42.00
40730;BME280;26418;50.070;8.436;2022-09-02T08:42:45;100038.47;;;21.24;42.21
40730;BME280;26418;50.070;8.436;2022-09-02T08:45:17;100042.03;;;21.28;42.15
40730;BME280;26418;50.070;8.436;2022-09-02T08:47:47;100042.81;;;21.28;41.34
40730;BME280;26418;50.070;8.436;2022-09-02T08:50:17;100051.59;;;21.38;41.60
40730;BME280;26418;50.070;8.436;2022-09-02T08:55:18;100051.66;;;21.68;41.26
40730;BME280;26418;50.070;8.436;2022-09-02T09:05:41;100039.31;;;22.19;39.54
40730;BME280;26418;50.070;8.436;2022-09-02T09:08:44;100032.13;;;22.45;39.44
40730;BME280;26418;50.070;8.436;2022-09-02T09:14:05;100025.09;;;23.00;37.93
40730;BME280;26418;50.070;8.436;2022-09-02T09:16:49;100020.19;;;23.27;36.65
40730;BME280;26418;50.070;8.436;2022-09-02T09:19:58;100031.00;;;23.58;36.55
40730;BME280;26418;50.070;8.436;2022-09-02T09:22:23;100011.00;;;23.82;36.36
40730;BME280;26418;50.070;8.436;2022-09-02T09:24:50;100021.78;;;24.13;35.87
40730;BME280;26418;50.070;8.436;2022-09-02T09:27:18;100014.75;;;24.33;35.09
40730;BME280;26418;50.070;8.436;2022-09-02T09:29:45;100003.28;;;24.53;34.33
40730;BME280;26418;50.070;8.436;2022-09-02T09:32:27;99999.78;;;24.89;34.27
40730;BME280;26418;50.070;8.436;2022-09-02T09:34:56;99998.53;;;25.19;33.90
40730;BME280;26418;50.070;8.436;2022-09-02T09:37:43;99994.13;;;25.36;33.48
40730;BME280;26418;50.070;8.436;2022-09-02T09:42:56;99971.13;;;25.64;31.74
40730;BME280;26418;50.070;8.436;2022-09-02T09:45:38;99988.00;;;25.95;31.84
40730;BME280;26418;50.070;8.436;2022-09-02T09:53:31;99985.44;;;26.26;30.96
40730;BME280;26418;50.070;8.436;2022-09-02T09:56:01;99982.97;;;26.43;30.20
40730;BME280;26418;50.070;8.436;2022-09-02T09:58:33;99981.31;;;26.49;28.69
40730;BME280;26418;50.070;8.436;2022-09-02T10:03:49;99961.78;;;26.67;27.23
40730;BME280;26418;50.070;8.436;2022-09-02T10:06:20;99971.19;;;26.80;26.11
40730;BME280;26418;50.070;8.436;2022-09-02T10:08:57;99969.41;;;27.01;27.30
40730;BME280;26418;50.070;8.436;2022-09-02T10:11:25;99960.56;;;27.10;27.00
40730;BME280;26418;50.070;8.436;2022-09-02T10:13:56;99959.59;;;27.27;26.93
40730;BME280;26418;50.070;8.436;2022-09-02T10:19:43;99953.34;;;27.54;26.58
40730;BME280;26418;50.070;8.436;2022-09-02T10:22:01;99954.69;;;28.01;26.08
40730;BME280;26418;50.070;8.436;2022-09-02T10:27:18;99952.66;;;28.32;24.54
40730;BME280;26418;50.070;8.436;2022-09-02T10:29:56;99949.00;;;28.63;24.21
40730;BME280;26418;50.070;8.436;2022-09-02T10:35:28;99944.56;;;28.65;24.19
40730;BME280;26418;50.070;8.436;2022-09-02T10:38:20;99937.47;;;29.08;24.25
40730;BME280;26418;50.070;8.436;2022-09-02T10:41:36;99937.75;;;29.54;23.79
40730;BME280;26418;50.070;8.436;2022-09-02T10:54:50;99924.19;;;30.42;22.06
40730;BME280;26418;50.070;8.436;2022-09-02T10:57:31;99933.53;;;30.36;21.66
40730;BME280;26418;50.070;8.436;2022-09-02T11:00:05;99931.59;;;30.33;21.92
40730;BME280;26418;50.070;8.436;2022-09-02T11:02:36;99925.50;;;30.21;22.05
40730;BME280;26418;50.070;8.436;2022-09-02T11:05:26;99923.94;;;30.37;22.11
40730;BME280;26418;50.070;8.436;2022-09-02T11:10:34;99911.09;;;30.39;21.80
40730;BME280;26418;50.070;8.436;2022-09-02T11:13:08;99900.91;;;30.33;21.79
40730;BME280;26418;50.070;8.436;2022-09-02T11:15:55;99902.28;;;30.57;22.12
40730;BME280;26418;50.070;8.436;2022-09-02T11:18:34;99893.66;;;30.52;21.22
40730;BME280;26418;50.070;8.436;2022-09-02T11:21:30;99892.50;;;30.66;21.88
40730;BME280;26418;50.070;8.436;2022-09-02T11:24:03;99889.97;;;30.71;21.92
40730;BME280;26418;50.070;8.436;2022-09-02T11:26:52;99900.91;;;30.33;22.23
40730;BME280;26418;50.070;8.436;2022-09-02T11:29:28;99899.88;;;30.26;22.35
40730;BME280;26418;50.070;8.436;2022-09-02T11:32:06;99901.53;;;30.07;22.01
40730;BME280;26418;50.070;8.436;2022-09-02T11:34:54;99896.56;;;29.99;22.08
40730;BME280;26418;50.070;8.436;2022-09-02T11:40:11;99885.06;;;29.60;22.12
40730;BME280;26418;50.070;8.436;2022-09-02T11:55:48;99868.13;;;28.50;24.10
40730;BME280;26418;50.070;8.436;2022-09-02T12:01:21;99865.78;;;28.92;23.44
40730;BME280;26418;50.070;8.436;2022-09-02T12:03:57;99865.69;;;29.36;23.46
40730;BME280;26418;50.070;8.436;2022-09-02T12:06:23;99848.81;;;29.43;22.67
40730;BME280;26418;50.070;8.436;2022-09-02T12:11:34;99862.66;;;30.00;21.86
40730;BME280;26418;50.070;8.436;2022-09-02T12:14:02;99846.09;;;30.09;22.24
40730;BME280;26418;50.070;8.436;2022-09-02T12:21:20;99855.69;;;29.18;23.00
40730;BME280;26418;50.070;8.436;2022-09-02T12:28:46;99844.03;;;28.19;24.14
40730;BME280;26418;50.070;8.436;2022-09-02T12:33:45;99848.25;;;28.28;24.29
40730;BME280;26418;50.070;8.436;2022-09-02T12:41:57;99824.47;;;27.99;23.92
40730;BME280;26418;50.070;8.436;2022-09-02T12:47:05;99836.59;;;27.85;24.29
40730;BME280;26418;50.070;8.436;2022-09-02T12:49:42;99834.13;;;27.91;24.59
40730;BME280;26418;50.070;8.436;2022-09-02T12:52:37;99820.78;;;27.82;24.67
40730;BME280;26418;50.070;8.436;2022-09-02T12:55:03;99823.44;;;27.66;24.38
40730;BME280;26418;50.070;8.436;2022-09-02T12:57:43;99825.25;;;27.49;24.61
40730;BME280;26418;50.070;8.436;2022-09-02T13:00:14;99824.53;;;27.44;24.91
40730;BME280;26418;50.070;8.436;2022-09-02T13:05:27;99796.91;;;27.61;24.40
40730;BME280;26418;50.070;8.436;2022-09-02T13:17:23;99783.09;;;27.54;24.68
40730;BME280;26418;50.070;8.436;2022-09-02T13:25:32;99798.81;;;27.64;24.18
40730;BME280;26418;50.070;8.436;2022-09-02T13:31:17;99782.31;;;27.53;24.35
40730;BME280;26418;50.070;8.436;2022-09-02T13:33:44;99774.53;;;27.44;24.70
40730;BME280;26418;50.070;8.436;2022-09-02T13:36:10;99788.31;;;27.52;24.80
40730;BME280;26418;50.070;8.436;2022-09-02T13:38:44;99774.06;;;27.50;24.43
40730;BME280;26418;50.070;8.436;2022-09-02T13:41:09;99766.25;;;27.37;24.17
40730;BME280;26418;50.070;8.436;2022-09-02T13:43:35;99746.78;;;27.13;24.06
40730;BME280;26418;50.070;8.436;2022-09-02T13:46:00;99723.16;;;27.02;24.48
40730;BME280;26418;50.070;8.436;2022-09-02T13:48:32;99760.03;;;27.29;24.31
40730;BME280;26418;50.070;8.436;2022-09-02T13:51:11;99751.28;;;27.31;24.64
40730;BME280;26418;50.070;8.436;2022-09-02T13:53:48;99761.19;;;27.32;24.42
40730;BME280;26418;50.070;8.436;2022-09-02T13:56:15;99737.09;;;27.25;24.97
40730;BME280;26418;50.070;8.436;2022-09-02T13:58:59;99726.72;;;27.29;25.20
40730;BME280;26418;50.070;8.436;2022-09-02T14:01:34;99733.41;;;27.32;24.55
40730;BME280;26418;50.070;8.436;2022-09-02T14:04:03;99729.13;;;27.27;24.12
40730;BME280;26418;50.070;8.436;2022-09-02T14:06:31;99736.25;;;27.28;24.76
40730;BME280;26418;50.070;8.436;2022-09-02T14:09:01;99741.81;;;27.28;24.70
40730;BME280;26418;50.070;8.436;2022-09-02T14:11:29;99730.44;;;27.19;24.49
40730;BME280;26418;50.070;8.436;2022-09-02T14:13:56;99707.34;;;26.98;24.28
40730;BME280;26418;50.070;8.436;2022-09-02T14:24:12;99722.97;;;26.85;25.08
40730;BME280;26418;50.070;8.436;2022-09-02T14:26:44;99722.31;;;26.77;24.71
40730;BME280;26418;50.070;8.436;2022-09-02T14:29:14;99712.81;;;26.71;24.46
40730;BME280;26418;50.070;8.436;2022-09-02T14:31:40;99703.44;;;26.61;24.95
40730;BME280;26418;50.070;8.436;2022-09-02T14:34:34;99701.09;;;26.60;24.40
40730;BME280;26418;50.070;8.436;2022-09-02T14:37:17;99693.13;;;26.62;25.48
40730;BME280;26418;50.070;8.436;2022-09-02T14:40:04;99689.44;;;26.72;25.35
40730;BME280;26418;50.070;8.436;2022-09-02T14:42:50;99691.84;;;26.70;24.87
40730;BME280;26418;50.070;8.436;2022-09-02T14:45:30;99683.94;;;26.68;24.62
40730;BME280;26418;50.070;8.436;2022-09-02T14:48:00;99674.97;;;26.57;25.01
40730;BME280;26418;50.070;8.436;2022-09-02T14:50:31;99672.63;;;26.56;25.39
40730;BME280;26418;50.070;8.436;2022-09-02T14:53:04;99677.34;;;26.59;24.82
40730;BME280;26418;50.070;8.436;2022-09-02T14:55:51;99677.72;;;26.57;25.02
40730;BME280;26418;50.070;8.436;2022-09-02T14:58:19;99664.34;;;26.52;24.86
40730;BME280;26418;50.070;8.436;2022-09-02T15:00:54;99662.31;;;26.56;25.15
40730;BME280;26418;50.070;8.436;2022-09-02T15:03:21;99665.81;;;26.60;25.11
40730;BME280;26418;50.070;8.436;2022-09-02T15:05:48;99667.91;;;26.52;24.40
40730;BME280;26418;50.070;8.436;2022-09-02T15:08:14;99670.25;;;26.54;24.78